createdAt,value
2022-10-12T00:00:40.304Z,66.18
2022-10-12T00:05:41.821Z,61.20
2022-10-12T00:10:43.340Z,80.72
2022-10-12T00:15:44.913Z,68.18
2022-10-12T00:20:46.427Z,55.30
2022-10-12T00:25:47.948Z,62.00
2022-10-12T00:30:49.454Z,57.38
2022-10-12T00:35:50.966Z,63.90
2022-10-12T00:40:52.461Z,55.97
2022-10-12T00:45:53.971Z,68.93
2022-10-12T00:50:55.490Z,70.78
2022-10-12T00:55:57.046Z,64.65
2022-10-12T01:00:58.657Z,64.15
2022-10-12T01:06:00.214Z,57.83
2022-10-12T01:11:01.725Z,53.50
2022-10-12T01:16:03.253Z,58.90
2022-10-12T01:21:04.793Z,62.60
2022-10-12T01:26:06.318Z,57.90
2022-10-12T01:31:07.833Z,68.72
2022-10-12T01:36:09.351Z,62.92
2022-10-12T01:41:10.874Z,64.90
2022-10-12T01:46:12.381Z,72.03
2022-10-12T01:51:13.908Z,71.97
2022-10-12T01:56:15.426Z,61.97
2022-10-12T02:01:17.018Z,66.82
2022-10-12T02:06:18.718Z,100.00
2022-10-12T02:11:20.250Z,368.13
2022-10-12T02:16:21.771Z,99.47
2022-10-12T02:21:23.282Z,95.97
2022-10-12T02:26:24.802Z,60.70
2022-10-12T02:31:26.324Z,57.20
2022-10-12T02:36:27.864Z,56.58
2022-10-12T02:41:29.372Z,59.53
2022-10-12T02:46:30.892Z,67.93
2022-10-12T02:51:32.421Z,64.78
2022-10-12T02:56:33.944Z,62.47
2022-10-12T03:01:35.522Z,60.70
2022-10-12T03:06:37.096Z,177.93
2022-10-12T03:11:38.618Z,70.50
2022-10-12T03:16:40.150Z,60.60
2022-10-12T03:21:41.701Z,59.35
2022-10-12T03:26:43.235Z,52.72
2022-10-12T03:31:44.748Z,62.17
2022-10-12T03:36:46.274Z,58.13
2022-10-12T03:41:47.808Z,127.03
2022-10-12T03:46:49.334Z,80.38
2022-10-12T03:51:50.847Z,54.97
2022-10-12T03:56:52.350Z,49.30
2022-10-12T04:01:53.926Z,56.35
2022-10-12T04:06:55.526Z,55.42
2022-10-12T04:11:57.062Z,60.00
2022-10-12T04:16:58.602Z,59.15
2022-10-12T04:22:00.146Z,63.03
2022-10-12T04:27:01.676Z,63.80
2022-10-12T04:32:03.188Z,51.72
2022-10-12T04:37:04.721Z,54.25
2022-10-12T04:42:06.251Z,62.17
2022-10-12T04:47:07.767Z,60.47
2022-10-12T04:52:09.272Z,74.28
2022-10-12T04:57:10.786Z,69.90
2022-10-12T05:02:12.328Z,66.53
2022-10-12T05:07:13.867Z,58.15
2022-10-12T05:12:15.383Z,67.20
2022-10-12T05:17:16.916Z,57.67
2022-10-12T05:22:18.434Z,71.28
2022-10-12T05:27:21.984Z,54.75
2022-10-12T05:32:23.491Z,68.15
2022-10-12T05:37:25.018Z,64.90
2022-10-12T05:42:26.546Z,66.35
2022-10-12T05:47:28.096Z,64.32
2022-10-12T05:52:29.656Z,66.03
2022-10-12T05:57:31.170Z,65.18
2022-10-12T06:02:32.687Z,74.63
2022-10-12T06:07:34.214Z,79.38
2022-10-12T06:12:36.030Z,102.65
2022-10-12T06:17:37.790Z,116.22
2022-10-12T06:22:39.660Z,119.65
2022-10-12T06:27:41.628Z,137.18
2022-10-12T06:32:43.156Z,161.88
2022-10-12T06:37:49.870Z,158.23
2022-10-12T06:42:54.944Z,147.25
2022-10-12T06:47:59.184Z,137.80
2022-10-12T06:53:00.706Z,119.50
2022-10-12T06:58:02.210Z,93.68
2022-10-12T07:03:03.753Z,68.47
2022-10-12T07:08:05.272Z,64.45
2022-10-12T07:13:06.786Z,66.85
2022-10-12T07:18:08.314Z,67.15
2022-10-12T07:23:09.824Z,59.50
2022-10-12T07:28:11.404Z,52.97
2022-10-12T07:33:12.970Z,55.55
2022-10-12T07:38:14.466Z,50.75
2022-10-12T07:43:16.588Z,53.70
2022-10-12T07:48:18.287Z,48.55
2022-10-12T07:53:19.805Z,48.30
2022-10-12T07:58:21.328Z,45.08
2022-10-12T08:03:22.876Z,56.90
2022-10-12T08:08:24.450Z,48.67
2022-10-12T08:13:25.952Z,44.25
2022-10-12T08:18:27.466Z,44.90
2022-10-12T08:23:29.196Z,38.30
2022-10-12T08:28:30.776Z,43.83
2022-10-12T08:33:32.527Z,46.97
2022-10-12T08:38:34.056Z,45.05
2022-10-12T08:43:35.585Z,39.03
2022-10-12T08:48:37.133Z,38.65
2022-10-12T08:53:38.657Z,36.63
2022-10-12T08:58:40.167Z,35.53
2022-10-12T09:03:41.683Z,33.53
2022-10-12T09:08:43.208Z,32.05
2022-10-12T09:13:44.856Z,27.48
2022-10-12T09:18:46.401Z,26.10
2022-10-12T09:23:47.934Z,33.67
2022-10-12T09:28:49.643Z,27.17
2022-10-12T09:33:51.310Z,23.77
2022-10-12T09:38:52.834Z,24.00
2022-10-12T09:43:54.350Z,22.98
2022-10-12T09:48:55.856Z,25.40
2022-10-12T09:53:57.900Z,26.35
2022-10-12T09:58:59.490Z,30.40
2022-10-12T10:04:01.162Z,29.67
2022-10-12T10:09:02.694Z,18.35
2022-10-12T10:14:04.249Z,20.60
2022-10-12T10:19:05.770Z,18.13
2022-10-12T10:24:07.293Z,20.20
2022-10-12T10:29:08.817Z,18.48
2022-10-12T10:34:10.328Z,16.30
2022-10-12T10:39:11.850Z,19.85
2022-10-12T10:44:13.373Z,18.02
2022-10-12T10:49:14.889Z,12.32
2022-10-12T10:54:16.411Z,11.52
2022-10-12T10:59:17.981Z,6.47
2022-10-12T11:04:19.515Z,7.40
2022-10-12T11:09:21.014Z,9.07
2022-10-12T11:14:22.546Z,10.07
2022-10-12T11:19:24.067Z,8.93
2022-10-12T11:24:25.591Z,12.10
2022-10-12T11:29:27.114Z,16.17
2022-10-12T11:34:28.644Z,5.28
2022-10-12T11:39:30.174Z,10.25
2022-10-12T11:44:31.693Z,7.93
2022-10-12T11:49:33.454Z,5.35
2022-10-12T11:54:34.990Z,8.63
2022-10-12T11:59:36.496Z,7.40
2022-10-12T12:04:42.799Z,11.65
2022-10-12T12:09:50.090Z,8.77
2022-10-12T12:14:52.220Z,9.30
2022-10-12T12:19:53.733Z,9.73
2022-10-12T12:24:55.245Z,6.90
2022-10-12T12:29:56.767Z,9.65
2022-10-12T12:35:00.628Z,10.35
2022-10-12T12:40:02.505Z,11.75
2022-10-12T12:45:04.053Z,10.05
2022-10-12T12:50:05.600Z,5.63
2022-10-12T12:55:07.105Z,5.32
2022-10-12T13:00:08.627Z,7.68
2022-10-12T13:05:10.170Z,8.48
2022-10-12T13:10:11.706Z,8.15
2022-10-12T13:15:13.232Z,11.50
2022-10-12T13:20:14.782Z,10.20
2022-10-12T13:25:16.301Z,10.35
2022-10-12T13:30:17.818Z,8.10
2022-10-12T13:35:19.329Z,10.60
2022-10-12T13:40:20.886Z,10.55
2022-10-12T13:45:22.401Z,7.78
2022-10-12T13:50:23.967Z,7.03
2022-10-12T13:55:25.481Z,6.53
2022-10-12T14:00:26.998Z,9.05
2022-10-12T14:05:28.522Z,8.60
2022-10-12T14:10:30.041Z,11.15
2022-10-12T14:15:31.571Z,6.28
2022-10-12T14:20:33.104Z,9.85
2022-10-12T14:25:34.618Z,8.38
2022-10-12T14:30:36.141Z,9.13
2022-10-12T14:35:37.665Z,11.65
2022-10-12T14:40:39.181Z,8.23
2022-10-12T14:45:40.719Z,7.82
2022-10-12T14:50:42.228Z,11.18
2022-10-12T14:55:43.753Z,9.07
2022-10-12T15:06:03.730Z,6.85
2022-10-12T15:11:05.249Z,7.32
2022-10-12T15:16:06.831Z,9.35
2022-10-12T15:21:08.366Z,9.38
2022-10-12T15:26:09.909Z,10.25
2022-10-12T15:31:17.615Z,7.90
2022-10-12T15:36:20.034Z,10.77
2022-10-12T15:41:21.554Z,12.23
2022-10-12T15:46:23.106Z,17.45
2022-10-12T15:51:24.612Z,17.55
2022-10-12T15:56:26.126Z,19.98
2022-10-12T16:01:27.704Z,17.73
2022-10-12T16:06:29.265Z,12.57
2022-10-12T16:11:30.783Z,25.58
2022-10-12T16:16:32.345Z,43.47
2022-10-12T16:21:33.881Z,43.95
2022-10-12T16:26:35.401Z,36.30
2022-10-12T16:31:36.965Z,62.05
2022-10-12T16:36:38.537Z,100.18
2022-10-12T16:41:40.084Z,58.63
2022-10-12T16:46:41.623Z,59.85
2022-10-12T16:51:43.157Z,53.55
2022-10-12T16:56:44.675Z,98.13
2022-10-12T17:01:46.187Z,55.90
2022-10-12T17:06:47.738Z,40.65
2022-10-12T17:11:49.268Z,52.50
2022-10-12T17:16:50.804Z,45.90
2022-10-12T17:21:52.370Z,36.28
2022-10-12T17:26:53.920Z,28.13
2022-10-12T17:31:55.442Z,31.48
2022-10-12T17:36:56.973Z,43.35
2022-10-12T17:41:58.579Z,92.07
2022-10-12T17:47:00.084Z,73.28
2022-10-12T17:52:01.596Z,62.85
2022-10-12T17:57:03.125Z,65.38
2022-10-12T18:02:09.178Z,35.45
2022-10-12T18:07:11.129Z,32.75
2022-10-12T18:12:12.649Z,66.25
2022-10-12T18:17:14.186Z,85.93
2022-10-12T18:22:15.905Z,37.20
2022-10-12T18:27:17.714Z,36.42
2022-10-12T18:32:19.665Z,33.10
2022-10-12T18:37:21.510Z,33.83
2022-10-12T18:42:23.037Z,26.05
2022-10-12T18:47:24.703Z,36.78
2022-10-12T18:52:26.242Z,54.13
2022-10-12T18:57:31.590Z,42.90
2022-10-12T19:02:34.346Z,29.98
2022-10-12T19:07:35.899Z,37.90
2022-10-12T19:12:38.118Z,31.38
2022-10-12T19:17:41.691Z,33.85
2022-10-12T19:22:43.208Z,37.30
2022-10-12T19:27:44.721Z,31.02
2022-10-12T19:32:46.252Z,24.65
2022-10-12T19:37:47.757Z,27.85
2022-10-12T19:42:51.343Z,33.22
2022-10-12T19:47:52.874Z,32.63
2022-10-12T19:52:54.381Z,32.35
2022-10-12T19:57:55.902Z,53.70
2022-10-12T20:02:57.406Z,36.58
2022-10-12T20:07:58.917Z,29.15
2022-10-12T20:13:00.448Z,54.28
2022-10-12T20:18:01.979Z,45.17
2022-10-12T20:23:03.511Z,30.42
2022-10-12T20:28:05.040Z,28.80
2022-10-12T20:33:06.565Z,26.98
2022-10-12T20:38:08.099Z,28.73
2022-10-12T20:43:09.641Z,28.38
2022-10-12T20:48:11.171Z,33.80
2022-10-12T20:53:12.711Z,30.77
2022-10-12T20:58:14.220Z,33.33
2022-10-12T21:03:15.724Z,27.65
2022-10-12T21:08:17.235Z,30.15
2022-10-12T21:13:18.755Z,29.00
2022-10-12T21:18:20.277Z,27.95
2022-10-12T21:23:21.797Z,33.85
2022-10-12T21:28:23.471Z,30.85
2022-10-12T21:33:25.082Z,37.63
2022-10-12T21:38:26.610Z,28.17
2022-10-12T21:43:28.133Z,36.10
2022-10-12T21:48:29.655Z,33.13
2022-10-12T21:53:31.173Z,35.58
2022-10-12T21:58:32.680Z,39.38
2022-10-12T22:09:00.057Z,38.53
2022-10-12T22:14:01.590Z,30.85
2022-10-12T22:19:03.111Z,34.80
2022-10-12T22:24:04.634Z,34.80
2022-10-12T22:29:06.173Z,31.40
2022-10-12T22:34:07.692Z,39.70
2022-10-12T22:39:09.249Z,39.70
2022-10-12T22:49:36.861Z,42.75
2022-10-12T22:54:38.383Z,42.80
2022-10-12T22:59:39.904Z,41.20
2022-10-12T23:04:41.433Z,50.65
2022-10-12T23:09:42.958Z,47.20
2022-10-12T23:14:44.466Z,47.20
2022-10-12T23:19:45.971Z,48.80
2022-10-12T23:24:47.480Z,45.30
2022-10-12T23:29:49.003Z,47.58
2022-10-12T23:34:50.543Z,46.95
2022-10-12T23:39:52.071Z,47.42
2022-10-12T23:44:53.607Z,43.90
2022-10-12T23:49:55.111Z,44.67
2022-10-12T23:54:56.632Z,49.33
2022-10-12T23:59:58.161Z,47.88
